Grantley Adams, Barbados

11:45 PM AST on February 12, 2016 (GMT -0400)
Grantley Adams International | | Change Station
CLOSE
Current Station
Airport
Location: Grantley Adams,
Elevation: 184 ft
Nearby Weather Stations

Elev 184 ft 13.07 °N, 59.49 °W | Updated 45 minutes ago

Scattered Clouds
Scattered Clouds
79 °F
Feels Like 79 °F
N
18
Wind Variable Wind from ENE

Today
High -- | Low -- °F
--% Chance of Precip.
Yesterday
High -- | Low -- °F
Precip. -- in
Pressure 30.04 in
Visibility 6.2 miles
Clouds Scattered Clouds 2000 ft
Dew Point 70 °F
Humidity 74%
Rainfall 0.00 in
Snow Depth Not available.
6:21 AM 6:02 PM
Waxing Crescent, 26% visible
METAR TBPB 130300Z 06016KT 9999 SCT020 26/21 Q1017 NOSIG
Pressure 30.04 in
Visibility 6.2 miles
Clouds Scattered Clouds 2000 ft
Dew Point 70 °F
Humidity 74%
Rainfall 0.00 in
Snow Depth Not available.
6:21 AM 6:02 PM
Waxing Crescent, 26% visible
METAR TBPB 130300Z 06016KT 9999 SCT020 26/21 Q1017 NOSIG

10-Day Weather Forecast

No radar image for this location.
×

Almanac

Astronomy

Feb. 12, 2016 Rise Set
Actual Time
Civil Twilight
Nautical Twilight
Astronomical Twilight
Moon
Length of Visible Light
Length of Day
Tomorrow will be .
, % of the Moon is Illuminated

Today's Extremes

Country Highs Country Lows

Community

WunderPhotos

Upload Photos

1,892,492 photos uploaded!

WunderBlog® & News

Nearby

Air Quality

  Air Quality AQ Index Pollutant
Not available.

Snow Depth

Station Depth Elevation

Earthquake Activity

City Distance Mag. Time & Date
Minimum magnitude displayed is 2.5.

Coastal Water Temperatures

Place Temperature

Stations

Nearby Weather Stations

Station Location Temp. Windchill Dew Point Humidity Wind Precip. Elev Updated Type